createdAt,value
2023-05-01T00:00:47.000Z,0
2023-05-01T00:01:51.000Z,0
2023-05-01T00:02:55.000Z,0
2023-05-01T00:03:59.000Z,0
2023-05-01T00:05:04.000Z,0
2023-05-01T00:06:08.000Z,0
2023-05-01T00:07:12.000Z,0
2023-05-01T00:08:16.000Z,0
2023-05-01T00:09:20.000Z,0
2023-05-01T00:10:24.000Z,0
2023-05-01T00:11:29.000Z,0
2023-05-01T00:12:33.000Z,0
2023-05-01T00:13:37.000Z,0
2023-05-01T00:14:41.000Z,0
2023-05-01T00:15:45.000Z,0
2023-05-01T00:16:49.000Z,0
2023-05-01T00:17:53.000Z,0
2023-05-01T00:18:58.000Z,0
2023-05-01T00:20:02.000Z,0
2023-05-01T00:21:06.000Z,0
2023-05-01T00:22:10.000Z,0
2023-05-01T00:23:14.000Z,0
2023-05-01T00:24:18.000Z,0
2023-05-01T00:25:22.000Z,0
2023-05-01T00:26:27.000Z,0
2023-05-01T00:27:31.000Z,0
2023-05-01T00:28:35.000Z,0
2023-05-01T00:29:39.000Z,0
2023-05-01T00:30:43.000Z,0
2023-05-01T00:31:47.000Z,0
2023-05-01T00:32:51.000Z,0
2023-05-01T00:33:56.000Z,0
2023-05-01T00:35:00.000Z,0
2023-05-01T00:36:04.000Z,0
2023-05-01T00:37:08.000Z,0
2023-05-01T00:38:12.000Z,0
2023-05-01T00:39:16.000Z,0
2023-05-01T00:40:20.000Z,0
2023-05-01T00:41:25.000Z,0
2023-05-01T00:42:29.000Z,0
2023-05-01T00:43:33.000Z,0
2023-05-01T00:44:37.000Z,0
2023-05-01T00:45:41.000Z,0
2023-05-01T00:46:45.000Z,0
2023-05-01T00:47:49.000Z,0
2023-05-01T00:48:53.000Z,0
2023-05-01T00:49:58.000Z,0
2023-05-01T00:51:02.000Z,0
2023-05-01T00:52:06.000Z,0
2023-05-01T00:53:10.000Z,0
2023-05-01T00:54:14.000Z,0
2023-05-01T00:55:18.000Z,0
2023-05-01T00:56:22.000Z,0
2023-05-01T00:57:26.000Z,0
2023-05-01T00:58:31.000Z,0
2023-05-01T00:59:35.000Z,0
2023-05-01T01:00:39.000Z,0
2023-05-01T01:01:43.000Z,0
2023-05-01T01:02:47.000Z,0
2023-05-01T01:03:51.000Z,0
2023-05-01T01:04:55.000Z,0
2023-05-01T01:06:00.000Z,0
2023-05-01T01:07:04.000Z,0
2023-05-01T01:08:08.000Z,0
2023-05-01T01:09:12.000Z,0
2023-05-01T01:10:16.000Z,0
2023-05-01T01:11:20.000Z,0
2023-05-01T01:12:24.000Z,0
2023-05-01T01:13:29.000Z,0
2023-05-01T01:14:33.000Z,0
2023-05-01T01:15:37.000Z,0
2023-05-01T01:16:41.000Z,0
2023-05-01T01:17:45.000Z,0
2023-05-01T01:18:49.000Z,0
2023-05-01T01:19:53.000Z,0
2023-05-01T01:20:58.000Z,0
2023-05-01T01:22:02.000Z,0
2023-05-01T01:23:06.000Z,0
2023-05-01T01:24:10.000Z,0
2023-05-01T01:25:14.000Z,0
2023-05-01T01:26:18.000Z,0
2023-05-01T01:27:22.000Z,0
2023-05-01T01:28:26.000Z,0
2023-05-01T01:29:31.000Z,0
2023-05-01T01:30:35.000Z,0
2023-05-01T01:31:39.000Z,0
2023-05-01T01:32:43.000Z,0
2023-05-01T01:33:47.000Z,0
2023-05-01T01:34:51.000Z,0
2023-05-01T01:35:55.000Z,0
2023-05-01T01:37:00.000Z,0
2023-05-01T01:38:04.000Z,0
2023-05-01T01:39:08.000Z,0
2023-05-01T01:40:12.000Z,0
2023-05-01T01:41:16.000Z,0
2023-05-01T01:42:20.000Z,0
2023-05-01T01:43:25.000Z,0
2023-05-01T01:44:29.000Z,0
2023-05-01T01:45:33.000Z,0
2023-05-01T01:46:37.000Z,0
2023-05-01T01:47:41.000Z,0
2023-05-01T01:48:45.000Z,0
2023-05-01T01:49:50.000Z,0
2023-05-01T01:50:54.000Z,0
2023-05-01T01:51:58.000Z,0
2023-05-01T01:53:02.000Z,0
2023-05-01T01:54:06.000Z,0
2023-05-01T01:55:10.000Z,0
2023-05-01T01:56:15.000Z,0
2023-05-01T01:57:19.000Z,0
2023-05-01T01:58:23.000Z,0
2023-05-01T01:59:27.000Z,0
2023-05-01T02:00:31.000Z,0
2023-05-01T02:01:35.000Z,0
2023-05-01T02:02:40.000Z,0
2023-05-01T02:03:44.000Z,0
2023-05-01T02:04:48.000Z,0
2023-05-01T02:05:52.000Z,0
2023-05-01T02:06:56.000Z,0
2023-05-01T02:08:00.000Z,0
2023-05-01T02:09:04.000Z,0
2023-05-01T02:10:09.000Z,0
2023-05-01T02:11:13.000Z,0
2023-05-01T02:12:17.000Z,0
2023-05-01T02:13:21.000Z,0
2023-05-01T02:14:25.000Z,0
2023-05-01T02:15:29.000Z,0
2023-05-01T02:16:33.000Z,0
2023-05-01T02:17:37.000Z,0
2023-05-01T02:18:42.000Z,0
2023-05-01T02:19:46.000Z,0
2023-05-01T02:20:50.000Z,0
2023-05-01T02:21:54.000Z,0
2023-05-01T02:22:58.000Z,0
2023-05-01T02:24:02.000Z,0
2023-05-01T02:25:06.000Z,0
2023-05-01T02:26:11.000Z,0
2023-05-01T02:27:15.000Z,0
2023-05-01T02:28:19.000Z,0
2023-05-01T02:29:23.000Z,0
2023-05-01T02:30:27.000Z,0
2023-05-01T02:31:31.000Z,0
2023-05-01T02:32:35.000Z,0
2023-05-01T02:33:40.000Z,0
2023-05-01T02:34:44.000Z,0
2023-05-01T02:35:48.000Z,0
2023-05-01T02:36:52.000Z,0
2023-05-01T02:37:56.000Z,0
2023-05-01T02:39:00.000Z,0
2023-05-01T02:40:04.000Z,0
2023-05-01T02:41:09.000Z,0
2023-05-01T02:42:13.000Z,0
2023-05-01T02:43:17.000Z,0
2023-05-01T02:44:21.000Z,0
2023-05-01T02:45:25.000Z,0
2023-05-01T02:46:29.000Z,0
2023-05-01T02:47:33.000Z,0
2023-05-01T02:48:37.000Z,0
2023-05-01T02:49:42.000Z,0
2023-05-01T02:50:46.000Z,0
2023-05-01T02:51:50.000Z,0
2023-05-01T02:52:54.000Z,0
2023-05-01T02:53:58.000Z,0
2023-05-01T02:55:02.000Z,0
2023-05-01T02:56:06.000Z,0
2023-05-01T02:57:11.000Z,0
2023-05-01T02:58:15.000Z,0
2023-05-01T02:59:19.000Z,0
2023-05-01T03:00:23.000Z,0
2023-05-01T03:01:27.000Z,0
2023-05-01T03:02:31.000Z,0
2023-05-01T03:03:35.000Z,0
2023-05-01T03:04:40.000Z,0
2023-05-01T03:05:44.000Z,0
2023-05-01T03:06:48.000Z,0
2023-05-01T03:07:52.000Z,0
2023-05-01T03:08:56.000Z,0
2023-05-01T03:10:00.000Z,0
2023-05-01T03:11:04.000Z,0
2023-05-01T03:12:09.000Z,0
2023-05-01T03:13:13.000Z,0
2023-05-01T03:14:17.000Z,0
2023-05-01T03:15:21.000Z,0
2023-05-01T03:16:25.000Z,0
2023-05-01T03:17:29.000Z,0
2023-05-01T03:18:33.000Z,0
2023-05-01T03:19:38.000Z,0
2023-05-01T03:20:42.000Z,0
2023-05-01T03:21:46.000Z,0
2023-05-01T03:22:50.000Z,0
2023-05-01T03:23:54.000Z,1
2023-05-01T03:24:59.000Z,1
2023-05-01T03:26:03.000Z,1
2023-05-01T03:27:07.000Z,1
2023-05-01T03:28:11.000Z,1
2023-05-01T03:29:15.000Z,2
2023-05-01T03:30:19.000Z,2
2023-05-01T03:31:23.000Z,2
2023-05-01T03:32:28.000Z,2
2023-05-01T03:33:32.000Z,3
2023-05-01T03:34:36.000Z,3
2023-05-01T03:35:40.000Z,3
2023-05-01T03:36:44.000Z,4
2023-05-01T03:37:49.000Z,4
2023-05-01T03:38:53.000Z,4
2023-05-01T03:39:57.000Z,5
2023-05-01T03:41:01.000Z,5
2023-05-01T03:42:05.000Z,5
2023-05-01T03:43:09.000Z,5
2023-05-01T03:44:13.000Z,6
2023-05-01T03:45:18.000Z,6
2023-05-01T03:46:22.000Z,6
2023-05-01T03:47:26.000Z,7
2023-05-01T03:48:30.000Z,7
2023-05-01T03:49:34.000Z,8
2023-05-01T03:50:38.000Z,8
2023-05-01T03:51:42.000Z,9
2023-05-01T03:52:47.000Z,10
2023-05-01T03:53:51.000Z,10
2023-05-01T03:54:55.000Z,11
2023-05-01T03:55:59.000Z,12
2023-05-01T03:57:03.000Z,13
2023-05-01T03:58:07.000Z,13
2023-05-01T03:59:12.000Z,14
2023-05-01T04:00:16.000Z,14
2023-05-01T04:01:20.000Z,15
2023-05-01T04:02:24.000Z,16
2023-05-01T04:03:28.000Z,17
2023-05-01T04:04:32.000Z,17
2023-05-01T04:05:36.000Z,18
2023-05-01T04:06:41.000Z,18
2023-05-01T04:07:45.000Z,19
2023-05-01T04:08:49.000Z,21
2023-05-01T04:09:53.000Z,22
2023-05-01T04:10:57.000Z,23
2023-05-01T04:12:01.000Z,24
2023-05-01T04:13:05.000Z,25
2023-05-01T04:14:10.000Z,27
2023-05-01T04:15:14.000Z,28
2023-05-01T04:16:18.000Z,28
2023-05-01T04:17:22.000Z,28
2023-05-01T04:18:26.000Z,28
2023-05-01T04:19:30.000Z,29
2023-05-01T04:20:34.000Z,30
2023-05-01T04:21:38.000Z,31
2023-05-01T04:22:43.000Z,32
2023-05-01T04:23:47.000Z,33
2023-05-01T04:24:51.000Z,33
2023-05-01T04:25:55.000Z,34
2023-05-01T04:26:59.000Z,35
2023-05-01T04:28:03.000Z,37
2023-05-01T04:29:07.000Z,38
2023-05-01T04:30:12.000Z,40
2023-05-01T04:31:16.000Z,41
2023-05-01T04:32:20.000Z,42
2023-05-01T04:33:24.000Z,43
2023-05-01T04:34:28.000Z,44
2023-05-01T04:35:32.000Z,46
2023-05-01T04:36:36.000Z,48
2023-05-01T04:37:40.000Z,48
2023-05-01T04:38:45.000Z,49
2023-05-01T04:39:49.000Z,50
2023-05-01T04:40:53.000Z,52
2023-05-01T04:41:57.000Z,52
2023-05-01T04:43:01.000Z,54
2023-05-01T04:44:05.000Z,54
2023-05-01T04:45:09.000Z,55
2023-05-01T04:46:14.000Z,56
2023-05-01T04:47:18.000Z,56
2023-05-01T04:48:22.000Z,57
2023-05-01T04:49:26.000Z,57
2023-05-01T04:50:30.000Z,57
2023-05-01T04:51:34.000Z,58
2023-05-01T04:52:38.000Z,58
2023-05-01T04:53:43.000Z,59
2023-05-01T04:54:47.000Z,60
2023-05-01T04:55:51.000Z,61
2023-05-01T04:56:55.000Z,63
2023-05-01T04:57:59.000Z,64
2023-05-01T04:59:03.000Z,65
2023-05-01T05:00:07.000Z,66
2023-05-01T05:01:12.000Z,67
2023-05-01T05:02:16.000Z,68
2023-05-01T05:03:20.000Z,69
2023-05-01T05:04:24.000Z,70
2023-05-01T05:05:28.000Z,70
2023-05-01T05:06:32.000Z,70
2023-05-01T05:07:36.000Z,72
2023-05-01T05:08:41.000Z,73
2023-05-01T05:09:45.000Z,75
2023-05-01T05:10:49.000Z,78
2023-05-01T05:11:53.000Z,79
2023-05-01T05:12:57.000Z,82
2023-05-01T05:14:01.000Z,85
2023-05-01T05:15:05.000Z,86
2023-05-01T05:16:09.000Z,87
2023-05-01T05:17:14.000Z,87
2023-05-01T05:18:18.000Z,87
2023-05-01T05:19:22.000Z,89
2023-05-01T05:20:26.000Z,91
2023-05-01T05:21:30.000Z,92
2023-05-01T05:22:34.000Z,92
2023-05-01T05:23:38.000Z,93
2023-05-01T05:24:42.000Z,94
2023-05-01T05:25:47.000Z,96
2023-05-01T05:26:51.000Z,97
2023-05-01T05:27:55.000Z,100
2023-05-01T05:28:59.000Z,101
2023-05-01T05:30:03.000Z,103
2023-05-01T05:31:07.000Z,105
2023-05-01T05:32:11.000Z,107
2023-05-01T05:33:16.000Z,108
2023-05-01T05:34:20.000Z,110
2023-05-01T05:35:24.000Z,112
2023-05-01T05:36:28.000Z,112
2023-05-01T05:37:32.000Z,113
2023-05-01T05:38:36.000Z,114
2023-05-01T05:39:40.000Z,114
2023-05-01T05:40:45.000Z,115
2023-05-01T05:41:49.000Z,116
2023-05-01T05:42:53.000Z,117
2023-05-01T05:43:57.000Z,118
2023-05-01T05:45:01.000Z,118
2023-05-01T05:46:05.000Z,118
2023-05-01T05:47:10.000Z,118
2023-05-01T05:48:14.000Z,117
2023-05-01T05:49:18.000Z,116
2023-05-01T05:50:22.000Z,113
2023-05-01T05:51:26.000Z,113
2023-05-01T05:52:30.000Z,112
2023-05-01T05:53:35.000Z,113
2023-05-01T05:54:39.000Z,113
2023-05-01T05:55:43.000Z,113
2023-05-01T05:56:47.000Z,113
2023-05-01T05:57:51.000Z,112
2023-05-01T05:58:55.000Z,112
2023-05-01T06:00:00.000Z,112
2023-05-01T06:01:04.000Z,112
2023-05-01T06:02:08.000Z,112
2023-05-01T06:03:12.000Z,112
2023-05-01T06:04:16.000Z,111
2023-05-01T06:05:20.000Z,111
2023-05-01T06:06:24.000Z,111
2023-05-01T06:07:29.000Z,110
2023-05-01T06:08:33.000Z,109
2023-05-01T06:09:37.000Z,108
2023-05-01T06:10:41.000Z,107
2023-05-01T06:11:45.000Z,105
2023-05-01T06:12:49.000Z,105
2023-05-01T06:13:53.000Z,105
2023-05-01T06:14:57.000Z,102
2023-05-01T06:16:02.000Z,101
2023-05-01T06:17:06.000Z,102
2023-05-01T06:18:10.000Z,103
2023-05-01T06:19:14.000Z,98
2023-05-01T06:20:18.000Z,95
2023-05-01T06:21:22.000Z,94
2023-05-01T06:22:26.000Z,93
2023-05-01T06:23:31.000Z,93
2023-05-01T06:24:35.000Z,93
2023-05-01T06:25:39.000Z,97
2023-05-01T06:26:43.000Z,96
2023-05-01T06:27:47.000Z,94
2023-05-01T06:28:51.000Z,100
2023-05-01T06:29:55.000Z,101
2023-05-01T06:30:59.000Z,105
2023-05-01T06:32:04.000Z,112
2023-05-01T06:33:08.000Z,106
2023-05-01T06:34:12.000Z,109
2023-05-01T06:35:16.000Z,109
2023-05-01T06:36:20.000Z,112
2023-05-01T06:37:24.000Z,110
2023-05-01T06:38:28.000Z,104
2023-05-01T06:39:32.000Z,96
2023-05-01T06:40:37.000Z,96
2023-05-01T06:41:41.000Z,95
2023-05-01T06:42:45.000Z,96
2023-05-01T06:43:49.000Z,106
2023-05-01T06:44:53.000Z,110
2023-05-01T06:45:57.000Z,97
2023-05-01T06:47:01.000Z,97
2023-05-01T06:48:05.000Z,97
2023-05-01T06:49:10.000Z,98
2023-05-01T06:50:14.000Z,111
2023-05-01T06:51:18.000Z,149
2023-05-01T06:52:22.000Z,212
2023-05-01T06:53:26.000Z,205
2023-05-01T06:54:30.000Z,151
2023-05-01T06:55:34.000Z,136
2023-05-01T06:56:39.000Z,141
2023-05-01T06:57:43.000Z,112
2023-05-01T06:58:47.000Z,105
2023-05-01T06:59:51.000Z,109
2023-05-01T07:00:55.000Z,106
2023-05-01T07:01:59.000Z,103
2023-05-01T07:03:03.000Z,103
2023-05-01T07:04:08.000Z,111
2023-05-01T07:05:12.000Z,127
2023-05-01T07:06:16.000Z,115
2023-05-01T07:07:20.000Z,108
2023-05-01T07:08:24.000Z,109
2023-05-01T07:09:28.000Z,111
2023-05-01T07:10:32.000Z,118
2023-05-01T07:11:36.000Z,125
2023-05-01T07:12:41.000Z,134
2023-05-01T07:13:45.000Z,155
2023-05-01T07:14:49.000Z,166
2023-05-01T07:15:53.000Z,151
2023-05-01T07:16:57.000Z,134
2023-05-01T07:18:01.000Z,123
2023-05-01T07:19:06.000Z,121
2023-05-01T07:20:10.000Z,121
2023-05-01T07:21:14.000Z,123
2023-05-01T07:22:18.000Z,123
2023-05-01T07:23:22.000Z,126
2023-05-01T07:24:26.000Z,125
2023-05-01T07:25:30.000Z,128
2023-05-01T07:26:35.000Z,130
2023-05-01T07:27:39.000Z,143
2023-05-01T07:28:43.000Z,154
2023-05-01T07:29:47.000Z,160
2023-05-01T07:30:51.000Z,131
2023-05-01T07:31:55.000Z,124
2023-05-01T07:33:00.000Z,123
2023-05-01T07:34:04.000Z,123
2023-05-01T07:35:08.000Z,123
2023-05-01T07:36:12.000Z,122
2023-05-01T07:37:16.000Z,122
2023-05-01T07:38:20.000Z,123
2023-05-01T07:39:24.000Z,126
2023-05-01T07:40:29.000Z,134
2023-05-01T07:41:33.000Z,134
2023-05-01T07:42:37.000Z,133
2023-05-01T07:43:41.000Z,130
2023-05-01T07:44:46.000Z,133
2023-05-01T07:45:50.000Z,134
2023-05-01T07:46:54.000Z,128
2023-05-01T07:47:59.000Z,128
2023-05-01T07:49:03.000Z,124
2023-05-01T07:50:07.000Z,124
2023-05-01T07:51:11.000Z,125
2023-05-01T07:52:15.000Z,134
2023-05-01T07:53:19.000Z,139
2023-05-01T07:54:23.000Z,135
2023-05-01T07:55:28.000Z,138
2023-05-01T07:56:32.000Z,145
2023-05-01T07:57:36.000Z,136
2023-05-01T07:58:40.000Z,133
2023-05-01T07:59:44.000Z,137
2023-05-01T08:00:48.000Z,146
2023-05-01T08:01:52.000Z,158
2023-05-01T08:02:56.000Z,155
2023-05-01T08:04:01.000Z,168
2023-05-01T08:05:05.000Z,173
2023-05-01T08:06:09.000Z,175
2023-05-01T08:07:13.000Z,165
2023-05-01T08:08:17.000Z,187
2023-05-01T08:09:21.000Z,210
2023-05-01T08:10:25.000Z,230
2023-05-01T08:11:29.000Z,268
2023-05-01T08:12:34.000Z,316
2023-05-01T08:13:38.000Z,307
2023-05-01T08:14:42.000Z,290
2023-05-01T08:15:46.000Z,265
2023-05-01T08:16:50.000Z,266
2023-05-01T08:17:54.000Z,330
2023-05-01T08:18:59.000Z,432
2023-05-01T08:20:03.000Z,464
2023-05-01T08:21:07.000Z,464
2023-05-01T08:22:11.000Z,417
2023-05-01T08:23:15.000Z,346
2023-05-01T08:24:19.000Z,302
2023-05-01T08:25:23.000Z,350
2023-05-01T08:26:27.000Z,461
2023-05-01T08:27:32.000Z,490
2023-05-01T08:28:36.000Z,499
2023-05-01T08:29:40.000Z,502
2023-05-01T08:30:44.000Z,446
2023-05-01T08:31:48.000Z,476
2023-05-01T08:32:52.000Z,520
2023-05-01T08:33:56.000Z,572
2023-05-01T08:35:01.000Z,572
2023-05-01T08:36:05.000Z,586
2023-05-01T08:37:09.000Z,608
2023-05-01T08:38:13.000Z,594
2023-05-01T08:39:24.000Z,546
2023-05-01T08:40:29.000Z,584
2023-05-01T08:41:33.000Z,545
2023-05-01T08:42:37.000Z,612
2023-05-01T08:43:41.000Z,626
2023-05-01T08:44:45.000Z,670
2023-05-01T08:45:49.000Z,629
2023-05-01T08:46:53.000Z,530
2023-05-01T08:47:58.000Z,478
2023-05-01T08:49:02.000Z,503
2023-05-01T08:50:06.000Z,529
2023-05-01T08:51:10.000Z,572
2023-05-01T08:52:14.000Z,551
2023-05-01T08:53:18.000Z,579
2023-05-01T08:54:23.000Z,648
2023-05-01T08:55:27.000Z,655
2023-05-01T08:56:31.000Z,593
2023-05-01T08:57:35.000Z,607
2023-05-01T08:58:39.000Z,619
2023-05-01T08:59:51.000Z,563
2023-05-01T09:00:55.000Z,551
2023-05-01T09:01:59.000Z,500
2023-05-01T09:03:03.000Z,558
2023-05-01T09:04:08.000Z,680
2023-05-01T09:05:12.000Z,680
2023-05-01T09:06:16.000Z,717
2023-05-01T09:07:20.000Z,727
2023-05-01T09:08:24.000Z,752
2023-05-01T09:09:28.000Z,696
2023-05-01T09:10:33.000Z,708
2023-05-01T09:11:37.000Z,718
2023-05-01T09:12:41.000Z,709
2023-05-01T09:13:45.000Z,710
2023-05-01T09:14:49.000Z,714
2023-05-01T09:15:53.000Z,717
2023-05-01T09:16:58.000Z,737
2023-05-01T09:18:02.000Z,701
2023-05-01T09:19:06.000Z,586
2023-05-01T09:20:10.000Z,633
2023-05-01T09:21:14.000Z,770
2023-05-01T09:22:18.000Z,825
2023-05-01T09:23:22.000Z,768
2023-05-01T09:24:27.000Z,774
2023-05-01T09:25:31.000Z,763
2023-05-01T09:26:35.000Z,755
2023-05-01T09:27:39.000Z,802
2023-05-01T09:28:43.000Z,761
2023-05-01T09:29:47.000Z,698
2023-05-01T09:30:51.000Z,640
2023-05-01T09:31:56.000Z,559
2023-05-01T09:33:07.000Z,703
2023-05-01T09:34:11.000Z,724
2023-05-01T09:35:15.000Z,723
2023-05-01T09:36:19.000Z,736
2023-05-01T09:37:23.000Z,687
2023-05-01T09:38:27.000Z,609
2023-05-01T09:39:32.000Z,653
2023-05-01T09:40:36.000Z,666
2023-05-01T09:41:40.000Z,756
2023-05-01T09:42:44.000Z,732
2023-05-01T09:43:48.000Z,731
2023-05-01T09:44:52.000Z,762
2023-05-01T09:45:56.000Z,648
2023-05-01T09:47:01.000Z,526
2023-05-01T09:48:05.000Z,531
2023-05-01T09:49:09.000Z,627
2023-05-01T09:50:13.000Z,619
2023-05-01T09:51:17.000Z,753
2023-05-01T09:52:21.000Z,737
2023-05-01T09:53:25.000Z,741
2023-05-01T09:54:30.000Z,785
2023-05-01T09:55:34.000Z,801
2023-05-01T09:56:38.000Z,850
2023-05-01T09:57:42.000Z,716
2023-05-01T09:58:46.000Z,659
2023-05-01T09:59:50.000Z,667
2023-05-01T10:00:54.000Z,660
2023-05-01T10:01:59.000Z,700
2023-05-01T10:03:03.000Z,712
2023-05-01T10:04:07.000Z,672
2023-05-01T10:05:11.000Z,703
2023-05-01T10:06:15.000Z,667
2023-05-01T10:07:19.000Z,447
2023-05-01T10:08:23.000Z,477
2023-05-01T10:09:28.000Z,590
2023-05-01T10:10:32.000Z,481
2023-05-01T10:11:36.000Z,426
2023-05-01T10:12:40.000Z,498
2023-05-01T10:13:44.000Z,770
2023-05-01T10:14:48.000Z,802
2023-05-01T10:15:53.000Z,614
2023-05-01T10:16:57.000Z,501
2023-05-01T10:18:01.000Z,494
2023-05-01T10:19:05.000Z,571
2023-05-01T10:20:09.000Z,802
2023-05-01T10:21:13.000Z,776
2023-05-01T10:22:18.000Z,750
2023-05-01T10:23:22.000Z,835
2023-05-01T10:24:26.000Z,782
2023-05-01T10:25:30.000Z,587
2023-05-01T10:26:34.000Z,564
2023-05-01T10:27:39.000Z,753
2023-05-01T10:28:43.000Z,838
2023-05-01T10:29:47.000Z,885
2023-05-01T10:30:51.000Z,822
2023-05-01T10:31:55.000Z,840
2023-05-01T10:32:59.000Z,882
2023-05-01T10:34:03.000Z,873
2023-05-01T10:35:08.000Z,835
2023-05-01T10:36:12.000Z,836
2023-05-01T10:37:16.000Z,886
2023-05-01T10:38:20.000Z,813
2023-05-01T10:39:24.000Z,777
2023-05-01T10:40:28.000Z,757
2023-05-01T10:41:33.000Z,605
2023-05-01T10:42:37.000Z,375
2023-05-01T10:43:41.000Z,406
2023-05-01T10:44:45.000Z,459
2023-05-01T10:45:49.000Z,716
2023-05-01T10:46:53.000Z,747
2023-05-01T10:47:57.000Z,804
2023-05-01T10:49:02.000Z,850
2023-05-01T10:50:06.000Z,624
2023-05-01T10:51:10.000Z,547
2023-05-01T10:52:14.000Z,780
2023-05-01T10:53:18.000Z,797
2023-05-01T10:54:22.000Z,600
2023-05-01T10:55:26.000Z,780
2023-05-01T10:56:31.000Z,459
2023-05-01T10:57:35.000Z,526
2023-05-01T10:58:39.000Z,595
2023-05-01T10:59:43.000Z,564
2023-05-01T11:00:47.000Z,426
2023-05-01T11:01:51.000Z,462
2023-05-01T11:02:55.000Z,492
2023-05-01T11:04:00.000Z,610
2023-05-01T11:05:04.000Z,572
2023-05-01T11:06:08.000Z,659
2023-05-01T11:07:12.000Z,704
2023-05-01T11:08:16.000Z,636
2023-05-01T11:09:20.000Z,797
2023-05-01T11:10:24.000Z,812
2023-05-01T11:11:29.000Z,829
2023-05-01T11:12:33.000Z,814
2023-05-01T11:13:37.000Z,798
2023-05-01T11:14:41.000Z,793
2023-05-01T11:15:45.000Z,824
2023-05-01T11:16:49.000Z,796
2023-05-01T11:17:54.000Z,792
2023-05-01T11:18:58.000Z,792
2023-05-01T11:20:02.000Z,836
2023-05-01T11:21:06.000Z,747
2023-05-01T11:22:10.000Z,734
2023-05-01T11:23:14.000Z,734
2023-05-01T11:24:18.000Z,746
2023-05-01T11:25:22.000Z,766
2023-05-01T11:26:27.000Z,819
2023-05-01T11:27:31.000Z,841
2023-05-01T11:28:35.000Z,835
2023-05-01T11:29:39.000Z,734
2023-05-01T11:30:43.000Z,702
2023-05-01T11:31:47.000Z,711
2023-05-01T11:32:51.000Z,723
2023-05-01T11:33:56.000Z,705
2023-05-01T11:35:00.000Z,666
2023-05-01T11:36:04.000Z,615
2023-05-01T11:37:08.000Z,612
2023-05-01T11:38:12.000Z,616
2023-05-01T11:39:16.000Z,789
2023-05-01T11:40:20.000Z,821
2023-05-01T11:41:25.000Z,810
2023-05-01T11:42:29.000Z,748
2023-05-01T11:43:33.000Z,655
2023-05-01T11:44:37.000Z,702
2023-05-01T11:45:41.000Z,695
2023-05-01T11:46:45.000Z,660
2023-05-01T11:47:49.000Z,687
2023-05-01T11:48:53.000Z,616
2023-05-01T11:49:58.000Z,706
2023-05-01T11:51:02.000Z,648
2023-05-01T11:52:06.000Z,740
2023-05-01T11:53:10.000Z,736
2023-05-01T11:54:14.000Z,810
2023-05-01T11:55:18.000Z,875
2023-05-01T11:56:22.000Z,916
2023-05-01T11:57:26.000Z,874
2023-05-01T11:58:31.000Z,881
2023-05-01T11:59:35.000Z,830
2023-05-01T12:00:39.000Z,880
2023-05-01T12:01:43.000Z,913
2023-05-01T12:02:47.000Z,900
2023-05-01T12:03:51.000Z,801
2023-05-01T12:04:55.000Z,781
2023-05-01T12:06:00.000Z,938
2023-05-01T12:07:04.000Z,917
2023-05-01T12:08:08.000Z,956
2023-05-01T12:09:12.000Z,877
2023-05-01T12:10:16.000Z,855
2023-05-01T12:11:20.000Z,681
2023-05-01T12:12:24.000Z,812
2023-05-01T12:13:28.000Z,745
2023-05-01T12:14:33.000Z,738
2023-05-01T12:15:37.000Z,726
2023-05-01T12:16:41.000Z,692
2023-05-01T12:17:45.000Z,644
2023-05-01T12:18:49.000Z,661
2023-05-01T12:19:53.000Z,663
2023-05-01T12:20:57.000Z,416
2023-05-01T12:22:01.000Z,373
2023-05-01T12:23:06.000Z,359
2023-05-01T12:24:10.000Z,379
2023-05-01T12:25:14.000Z,357
2023-05-01T12:26:18.000Z,354
2023-05-01T12:27:22.000Z,368
2023-05-01T12:28:26.000Z,395
2023-05-01T12:29:30.000Z,426
2023-05-01T12:30:34.000Z,512
2023-05-01T12:31:39.000Z,594
2023-05-01T12:32:43.000Z,574
2023-05-01T12:33:47.000Z,878
2023-05-01T12:34:51.000Z,831
2023-05-01T12:35:55.000Z,807
2023-05-01T12:36:59.000Z,707
2023-05-01T12:38:03.000Z,739
2023-05-01T12:39:08.000Z,884
2023-05-01T12:40:12.000Z,675
2023-05-01T12:41:16.000Z,656
2023-05-01T12:42:20.000Z,498
2023-05-01T12:43:24.000Z,581
2023-05-01T12:44:29.000Z,723
2023-05-01T12:45:33.000Z,495
2023-05-01T12:46:37.000Z,472
2023-05-01T12:47:41.000Z,475
2023-05-01T12:48:45.000Z,485
2023-05-01T12:49:49.000Z,511
2023-05-01T12:50:53.000Z,627
2023-05-01T12:51:58.000Z,666
2023-05-01T12:53:02.000Z,687
2023-05-01T12:54:06.000Z,635
2023-05-01T12:55:10.000Z,616
2023-05-01T12:56:14.000Z,626
2023-05-01T12:57:18.000Z,544
2023-05-01T12:58:23.000Z,530
2023-05-01T12:59:27.000Z,464
2023-05-01T13:00:31.000Z,398
2023-05-01T13:01:35.000Z,375
2023-05-01T13:02:39.000Z,405
2023-05-01T13:03:43.000Z,416
2023-05-01T13:04:47.000Z,440
2023-05-01T13:05:52.000Z,433
2023-05-01T13:06:56.000Z,411
2023-05-01T13:08:00.000Z,399
2023-05-01T13:09:04.000Z,385
2023-05-01T13:10:08.000Z,360
2023-05-01T13:11:12.000Z,341
2023-05-01T13:12:17.000Z,348
2023-05-01T13:13:21.000Z,356
2023-05-01T13:14:25.000Z,357
2023-05-01T13:15:29.000Z,378
2023-05-01T13:16:33.000Z,392
2023-05-01T13:17:37.000Z,392
2023-05-01T13:18:41.000Z,394
2023-05-01T13:19:45.000Z,393
2023-05-01T13:20:50.000Z,392
2023-05-01T13:21:54.000Z,395
2023-05-01T13:22:58.000Z,382
2023-05-01T13:24:02.000Z,380
2023-05-01T13:25:06.000Z,374
2023-05-01T13:26:10.000Z,378
2023-05-01T13:27:14.000Z,376
2023-05-01T13:28:19.000Z,366
2023-05-01T13:29:23.000Z,356
2023-05-01T13:30:27.000Z,346
2023-05-01T13:31:31.000Z,333
2023-05-01T13:32:35.000Z,333
2023-05-01T13:33:39.000Z,325
2023-05-01T13:34:43.000Z,315
2023-05-01T13:35:47.000Z,308
2023-05-01T13:36:52.000Z,305
2023-05-01T13:37:56.000Z,301
2023-05-01T13:39:00.000Z,297
2023-05-01T13:40:04.000Z,295
2023-05-01T13:41:08.000Z,295
2023-05-01T13:42:12.000Z,296
2023-05-01T13:43:16.000Z,298
2023-05-01T13:44:20.000Z,307
2023-05-01T13:45:24.000Z,313
2023-05-01T13:46:29.000Z,321
2023-05-01T13:47:33.000Z,323
2023-05-01T13:48:37.000Z,322
2023-05-01T13:49:41.000Z,326
2023-05-01T13:50:45.000Z,317
2023-05-01T13:51:49.000Z,321
2023-05-01T13:52:54.000Z,324
2023-05-01T13:53:58.000Z,324
2023-05-01T13:55:02.000Z,323
2023-05-01T13:56:06.000Z,322
2023-05-01T13:57:10.000Z,331
2023-05-01T13:58:14.000Z,338
2023-05-01T13:59:18.000Z,358
2023-05-01T14:00:22.000Z,368
2023-05-01T14:01:27.000Z,386
2023-05-01T14:02:31.000Z,391
2023-05-01T14:03:35.000Z,379
2023-05-01T14:04:39.000Z,377
2023-05-01T14:05:43.000Z,377
2023-05-01T14:06:47.000Z,374
2023-05-01T14:07:51.000Z,385
2023-05-01T14:08:55.000Z,365
2023-05-01T14:10:00.000Z,347
2023-05-01T14:11:04.000Z,346
2023-05-01T14:12:08.000Z,348
2023-05-01T14:13:12.000Z,355
2023-05-01T14:14:16.000Z,364
2023-05-01T14:15:20.000Z,364
2023-05-01T14:16:24.000Z,363
2023-05-01T14:17:29.000Z,357
2023-05-01T14:18:33.000Z,350
2023-05-01T14:19:37.000Z,335
2023-05-01T14:20:41.000Z,321
2023-05-01T14:21:45.000Z,313
2023-05-01T14:22:49.000Z,311
2023-05-01T14:23:54.000Z,311
2023-05-01T14:24:58.000Z,307
2023-05-01T14:26:02.000Z,297
2023-05-01T14:27:06.000Z,293
2023-05-01T14:28:10.000Z,290
2023-05-01T14:29:14.000Z,290
2023-05-01T14:30:19.000Z,288
2023-05-01T14:31:23.000Z,291
2023-05-01T14:32:27.000Z,293
2023-05-01T14:33:31.000Z,291
2023-05-01T14:34:35.000Z,289
2023-05-01T14:35:39.000Z,292
2023-05-01T14:36:44.000Z,294
2023-05-01T14:37:48.000Z,293
2023-05-01T14:38:52.000Z,291
2023-05-01T14:39:56.000Z,294
2023-05-01T14:41:00.000Z,299
2023-05-01T14:42:04.000Z,302
2023-05-01T14:43:08.000Z,303
2023-05-01T14:44:13.000Z,307
2023-05-01T14:45:17.000Z,310
2023-05-01T14:46:21.000Z,301
2023-05-01T14:47:25.000Z,293
2023-05-01T14:48:29.000Z,288
2023-05-01T14:49:33.000Z,285
2023-05-01T14:50:37.000Z,279
2023-05-01T14:51:42.000Z,275
2023-05-01T14:52:46.000Z,267
2023-05-01T14:53:50.000Z,262
2023-05-01T14:54:54.000Z,257
2023-05-01T14:55:58.000Z,0
2023-05-01T14:57:02.000Z,511
2023-05-01T14:58:06.000Z,253
2023-05-01T14:59:11.000Z,250
2023-05-01T15:00:15.000Z,247
2023-05-01T15:01:19.000Z,242
2023-05-01T15:02:23.000Z,240
2023-05-01T15:03:27.000Z,240